Time;durP1;ratioP1;P1;durP2;ratioP2;P2;SDS_P1;SDS_P2;PMS_P1;PMS_P2;Temp;Humidity;BMP_temperature;BMP_pressure;BME280_temperature;BME280_humidity;BME280_pressure;Samples;Min_cycle;Max_cycle;Signal;HPM_P1;HPM_P2
2022/07/09 00:02:03;;;;;;;;;;;;;;;;;;4980908;28;19949;-93
2022/07/09 00:04:28;;;;;;;;;;;;;;;;;;4948942;28;19914;-95
2022/07/09 00:06:56;;;;;;;;;;;;;;;;;;4948934;28;20029;-94
2022/07/09 00:09:21;;;;;;;;;;;;;;;;;;4964780;28;19914;-95
2022/07/09 00:11:52;;;;;;;;;;;;;;;;;;4950042;28;20400;-94
2022/07/09 00:14:17;;;;;;;;;;;;;;;;;;4964589;28;19914;-95
2022/07/09 00:16:43;;;;;;;;;;;;;;;;;;4950218;28;19955;-93
2022/07/09 00:19:12;;;;;;;;;;;;;;;;;;4949834;28;19922;-93
2022/07/09 00:21:37;;;;;;;;;;;;;;;;;;4950234;28;19937;-94
2022/07/09 00:24:03;;;;;;;;;;;;;;;;;;4965241;28;19945;-94
2022/07/09 00:26:33;;;;;;;;;;;;;;;;;;4950028;28;19960;-93
2022/07/09 00:29:02;;;;;;;;;;;;;;;;;;4966062;28;19921;-95
2022/07/09 00:31:30;;;;;;;;;;;;;;;;;;4949215;28;19941;-94
2022/07/09 00:33:58;;;;;;;;;;;;;;;;;;4964137;28;19917;-94
2022/07/09 00:36:27;;;;;;;;;;;;;;;;;;4949622;28;19913;-94
2022/07/09 00:38:52;;;;;;;;;;;;;;;;;;4949744;28;19917;-94
2022/07/09 00:41:18;;;;;;;;;;;;;;;;;;4980572;28;20336;-95
2022/07/09 00:43:43;;;;;;;;;;;;;;;;;;4980365;28;19960;-93
2022/07/09 00:46:11;;;;;;;;;;;;;;;;;;4963806;28;20396;-95
2022/07/09 00:48:36;;;;;;;;;;;;;;;;;;4963828;28;19921;-94
2022/07/09 00:51:04;;;;;;;;;;;;;;;;;;4964100;28;19916;-91
2022/07/09 00:53:30;;;;;;;;;;;;;;;;;;4947563;28;19913;-94
2022/07/09 00:55:55;;;;;;;;;;;;;;;;;;4963349;28;20384;-93
2022/07/09 00:58:21;;;;;;;;;;;;;;;;;;4948687;28;19988;-92
2022/07/09 01:00:49;;;;;;;;;;;;;;;;;;4964123;28;19913;-94
2022/07/09 01:03:17;;;;;;;;;;;;;;;;;;4947515;28;19918;-94
2022/07/09 01:05:43;;;;;;;;;;;;;;;;;;4979027;28;19914;-93
2022/07/09 01:08:10;;;;;;;;;;;;;;;;;;4948142;28;19920;-94
2022/07/09 01:10:36;;;;;;;;;;;;;;;;;;4947468;28;19913;-93
2022/07/09 01:13:02;;;;;;;;;;;;;;;;;;4946853;28;19921;-93
2022/07/09 01:15:28;;;;;;;;;;;;;;;;;;4946744;28;19914;-95
2022/07/09 01:17:55;;;;;;;;;;;;;;;;;;4946985;28;19917;-94
2022/07/09 01:20:20;;;;;;;;;;;;;;;;;;4946938;28;19921;-95
2022/07/09 01:22:49;;;;;;;;;;;;;;;;;;4947733;28;19913;-94
2022/07/09 01:25:15;;;;;;;;;;;;;;;;;;4946614;28;19924;-95
2022/07/09 01:27:43;;;;;;;;;;;;;;;;;;4963233;28;19922;-94
2022/07/09 01:30:11;;;;;;;;;;;;;;;;;;4996358;28;19941;-95
2022/07/09 01:32:36;;;;;;;;;;;;;;;;;;4979708;28;19914;-94
2022/07/09 01:35:02;;;;;;;;;;;;;;;;;;4947331;28;19968;-93
2022/07/09 01:37:28;;;;;;;;;;;;;;;;;;4946629;28;19944;-92
2022/07/09 01:39:54;;;;;;;;;;;;;;;;;;4962967;28;20377;-94
2022/07/09 01:42:22;;;;;;;;;;;;;;;;;;4963267;28;19957;-96
2022/07/09 01:44:48;;;;;;;;;;;;;;;;;;4995684;28;19913;-93
2022/07/09 01:47:16;;;;;;;;;;;;;;;;;;4963747;28;19913;-94
2022/07/09 01:49:42;;;;;;;;;;;;;;;;;;4979007;28;19914;-93
2022/07/09 01:52:07;;;;;;;;;;;;;;;;;;4996452;28;19914;-92
2022/07/09 01:54:32;;;;;;;;;;;;;;;;;;4979895;28;19990;-94
2022/07/09 01:57:00;;;;;;;;;;;;;;;;;;4963821;28;19920;-93
2022/07/09 01:59:26;;;;;;;;;;;;;;;;;;4978549;28;19913;-92
2022/07/09 02:01:51;;;;;;;;;;;;;;;;;;4994102;28;19918;-93
2022/07/09 02:04:17;;;;;;;;;;;;;;;;;;4962233;28;19921;-94
2022/07/09 02:06:42;;;;;;;;;;;;;;;;;;4978345;28;19929;-91
2022/07/09 02:09:08;;;;;;;;;;;;;;;;;;4946370;28;19943;-94
2022/07/09 02:11:33;;;;;;;;;;;;;;;;;;4978147;28;20265;-94
2022/07/09 02:13:59;;;;;;;;;;;;;;;;;;4977959;28;20296;-94
2022/07/09 02:16:29;;;;;;;;;;;;;;;;;;4977895;28;19921;-91
2022/07/09 02:19:05;;;;;;;;;;;;;;;;;;4978013;28;20003;-93
2022/07/09 02:21:30;;;;;;;;;;;;;;;;;;4962692;28;19914;-92
2022/07/09 02:23:58;;;;;;;;;;;;;;;;;;4946290;28;19916;-92
2022/07/09 02:26:24;;;;;;;;;;;;;;;;;;4946748;28;19918;-92
2022/07/09 02:28:50;;;;;;;;;;;;;;;;;;4987463;23;20052;-75
2022/07/09 02:31:15;;;;;;;;;;;;;;;;;;5011606;28;20448;-75
2022/07/09 02:33:41;;;;;;;;;;;;;;;;;;5012595;28;19909;-74
2022/07/09 02:36:06;;;;;;;;;;;;;;;;;;4994949;28;20280;-75
2022/07/09 02:38:32;;;;;;;;;;;;;;;;;;5012424;28;19932;-75
2022/07/09 02:40:57;;;;;;;;;;;;;;;;;;5012614;28;19920;-74
2022/07/09 02:43:22;;;;;;;;;;;;;;;;;;5012371;28;19921;-75
2022/07/09 02:45:51;;;;;;;;;;;;;;;;;;5012544;28;19914;-75
2022/07/09 02:48:16;;;;;;;;;;;;;;;;;;5011497;28;19921;-75
2022/07/09 02:50:42;;;;;;;;;;;;;;;;;;5015972;28;19913;-76
2022/07/09 02:53:07;;;;;;;;;;;;;;;;;;5016509;28;20385;-73
2022/07/09 02:55:32;;;;;;;;;;;;;;;;;;5015246;28;19920;-75
2022/07/09 02:57:58;;;;;;;;;;;;;;;;;;5015023;28;19973;-74
2022/07/09 03:00:23;;;;;;;;;;;;;;;;;;5015191;28;19995;-74
2022/07/09 03:02:49;;;;;;;;;;;;;;;;;;5016270;28;20284;-75
2022/07/09 03:05:15;;;;;;;;;;;;;;;;;;5014957;28;19918;-76
2022/07/09 03:07:40;;;;;;;;;;;;;;;;;;5015097;28;19920;-75
2022/07/09 03:10:05;;;;;;;;;;;;;;;;;;5015131;28;19913;-74
2022/07/09 03:12:31;;;;;;;;;;;;;;;;;;5015143;28;20331;-75
2022/07/09 03:14:56;;;;;;;;;;;;;;;;;;5015238;28;19921;-75
2022/07/09 03:17:22;;;;;;;;;;;;;;;;;;5016068;28;19921;-76
2022/07/09 03:19:47;;;;;;;;;;;;;;;;;;4998810;28;19996;-76
2022/07/09 03:22:13;;;;;;;;;;;;;;;;;;4998750;28;19914;-76
2022/07/09 03:24:39;;;;;;;;;;;;;;;;;;5014750;28;20380;-74
2022/07/09 03:27:04;;;;;;;;;;;;;;;;;;5014810;28;20288;-75
2022/07/09 03:29:29;;;;;;;;;;;;;;;;;;5015798;28;20300;-74
2022/07/09 03:31:55;;;;;;;;;;;;;;;;;;5014572;28;19921;-75
2022/07/09 03:34:20;;;;;;;;;;;;;;;;;;5015689;28;19920;-74
2022/07/09 03:36:46;;;;;;;;;;;;;;;;;;4998095;28;20360;-74
2022/07/09 03:39:11;;;;;;;;;;;;;;;;;;5015949;28;19917;-74
2022/07/09 03:41:37;;;;;;;;;;;;;;;;;;4998366;28;20340;-74
2022/07/09 03:44:02;;;;;;;;;;;;;;;;;;4998187;28;20273;-76
2022/07/09 03:46:29;;;;;;;;;;;;;;;;;;5014274;28;19971;-74
2022/07/09 03:48:54;;;;;;;;;;;;;;;;;;5015361;28;20372;-75
2022/07/09 03:51:19;;;;;;;;;;;;;;;;;;5014313;28;19920;-75
2022/07/09 03:53:45;;;;;;;;;;;;;;;;;;5014245;28;19913;-74
2022/07/09 03:56:12;;;;;;;;;;;;;;;;;;4998016;28;20261;-74
2022/07/09 03:58:37;;;;;;;;;;;;;;;;;;5014118;28;20156;-75
2022/07/09 04:01:03;;;;;;;;;;;;;;;;;;5013667;28;19914;-76
2022/07/09 04:03:28;;;;;;;;;;;;;;;;;;4997685;28;20289;-76
2022/07/09 04:05:54;;;;;;;;;;;;;;;;;;5015291;28;19968;-75
2022/07/09 04:08:19;;;;;;;;;;;;;;;;;;4997904;28;20029;-76
2022/07/09 04:10:45;;;;;;;;;;;;;;;;;;5014211;28;20285;-75
2022/07/09 04:13:10;;;;;;;;;;;;;;;;;;4997714;28;19920;-75
2022/07/09 04:15:36;;;;;;;;;;;;;;;;;;5014057;28;19913;-74
2022/07/09 04:18:02;;;;;;;;;;;;;;;;;;4997382;28;19917;-76
2022/07/09 04:20:27;;;;;;;;;;;;;;;;;;5013839;28;19921;-74
2022/07/09 04:22:53;;;;;;;;;;;;;;;;;;5014802;28;20012;-74
2022/07/09 04:25:18;;;;;;;;;;;;;;;;;;4997492;28;19913;-75
2022/07/09 04:27:44;;;;;;;;;;;;;;;;;;5013526;28;19913;-75
2022/07/09 04:30:09;;;;;;;;;;;;;;;;;;5013895;28;19991;-75
2022/07/09 04:32:35;;;;;;;;;;;;;;;;;;5013353;28;19956;-75
2022/07/09 04:35:00;;;;;;;;;;;;;;;;;;5014593;28;19913;-74
2022/07/09 04:37:26;;;;;;;;;;;;;;;;;;4997006;28;20016;-76
2022/07/09 04:39:51;;;;;;;;;;;;;;;;;;5014384;28;19914;-75
2022/07/09 04:42:19;;;;;;;;;;;;;;;;;;5013378;28;19917;-76
2022/07/09 04:44:44;;;;;;;;;;;;;;;;;;5014391;28;19914;-75
2022/07/09 04:47:10;;;;;;;;;;;;;;;;;;5013516;28;19917;-76
2022/07/09 04:49:35;;;;;;;;;;;;;;;;;;5013029;28;19914;-75
2022/07/09 04:52:01;;;;;;;;;;;;;;;;;;4996825;28;19949;-75
2022/07/09 04:54:26;;;;;;;;;;;;;;;;;;4996644;28;19913;-76
2022/07/09 04:56:52;;;;;;;;;;;;;;;;;;5013115;28;19996;-74
2022/07/09 04:59:17;;;;;;;;;;;;;;;;;;4996478;28;19917;-76
2022/07/09 05:01:42;;;;;;;;;;;;;;;;;;5013073;28;19914;-76
2022/07/09 05:04:08;;;;;;;;;;;;;;;;;;5012747;28;19914;-76
2022/07/09 05:06:33;;;;;;;;;;;;;;;;;;5014047;28;19925;-76
2022/07/09 05:08:59;;;;;;;;;;;;;;;;;;5014054;28;19956;-75
2022/07/09 05:11:25;;;;;;;;;;;;;;;;;;4996008;28;19980;-76
2022/07/09 05:13:50;;;;;;;;;;;;;;;;;;5012406;28;20380;-75
2022/07/09 05:16:16;;;;;;;;;;;;;;;;;;5013819;28;19913;-75
2022/07/09 05:18:41;;;;;;;;;;;;;;;;;;5012171;28;19960;-75
2022/07/09 05:21:07;;;;;;;;;;;;;;;;;;5013783;28;20000;-76
2022/07/09 05:23:33;;;;;;;;;;;;;;;;;;4996256;28;19917;-76
2022/07/09 05:25:58;;;;;;;;;;;;;;;;;;5013637;28;19952;-75
2022/07/09 05:28:23;;;;;;;;;;;;;;;;;;5013385;28;19917;-76
2022/07/09 05:30:49;;;;;;;;;;;;;;;;;;5012376;28;19920;-76
2022/07/09 05:33:14;;;;;;;;;;;;;;;;;;5012365;28;20351;-75
2022/07/09 05:35:40;;;;;;;;;;;;;;;;;;5013525;28;19918;-74
2022/07/09 05:38:05;;;;;;;;;;;;;;;;;;5012231;28;20284;-74
2022/07/09 05:40:31;;;;;;;;;;;;;;;;;;4995854;28;20384;-74
2022/07/09 05:42:57;;;;;;;;;;;;;;;;;;4995889;28;19914;-74
2022/07/09 05:45:22;;;;;;;;;;;;;;;;;;5012345;28;20380;-75
2022/07/09 05:47:48;;;;;;;;;;;;;;;;;;5011926;28;19913;-74
2022/07/09 05:50:13;;;;;;;;;;;;;;;;;;5012025;28;19953;-75
2022/07/09 05:52:39;;;;;;;;;;;;;;;;;;5011804;28;19920;-75
2022/07/09 05:55:04;;;;;;;;;;;;;;;;;;5013248;28;19916;-74
2022/07/09 05:57:30;;;;;;;;;;;;;;;;;;5011752;28;20380;-75
2022/07/09 05:59:57;;;;;;;;;;;;;;;;;;5011184;28;20140;-75
2022/07/09 06:02:22;;;;;;;;;;;;;;;;;;5012609;28;19940;-75
2022/07/09 06:04:48;;;;;;;;;;;;;;;;;;5012842;28;19913;-75
2022/07/09 06:07:14;;;;;;;;;;;;;;;;;;5011610;28;20388;-75
2022/07/09 06:09:40;;;;;;;;;;;;;;;;;;5013021;28;19960;-75
2022/07/09 06:12:05;;;;;;;;;;;;;;;;;;4995698;28;19913;-74
2022/07/09 06:14:30;;;;;;;;;;;;;;;;;;5012857;28;19959;-76
2022/07/09 06:16:56;;;;;;;;;;;;;;;;;;4995493;28;19913;-76
2022/07/09 06:19:21;;;;;;;;;;;;;;;;;;5011331;28;20348;-76
2022/07/09 06:21:47;;;;;;;;;;;;;;;;;;5011668;28;19922;-75
2022/07/09 06:24:12;;;;;;;;;;;;;;;;;;5011183;28;19933;-75
2022/07/09 06:26:38;;;;;;;;;;;;;;;;;;5012629;28;19920;-76
2022/07/09 06:29:03;;;;;;;;;;;;;;;;;;5011105;28;19918;-76
2022/07/09 06:31:29;;;;;;;;;;;;;;;;;;5012466;28;19917;-76
2022/07/09 06:33:54;;;;;;;;;;;;;;;;;;5011150;28;19909;-77
2022/07/09 06:36:20;;;;;;;;;;;;;;;;;;4994852;28;20388;-75
2022/07/09 06:41:30;;;;;;;;;;;;;;;;;;5012689;28;19924;-77
2022/07/09 06:43:55;;;;;;;;;;;;;;;;;;5010985;28;20284;-77
2022/07/09 06:46:21;;;;;;;;;;;;;;;;;;5011328;28;20295;-76
2022/07/09 06:48:46;;;;;;;;;;;;;;;;;;5011131;28;20355;-76
2022/07/09 06:51:12;;;;;;;;;;;;;;;;;;5011289;28;19913;-74
2022/07/09 06:53:37;;;;;;;;;;;;;;;;;;5011279;28;20009;-74
2022/07/09 06:56:03;;;;;;;;;;;;;;;;;;5011051;28;19955;-75
2022/07/09 06:58:29;;;;;;;;;;;;;;;;;;4994608;28;19918;-75
2022/07/09 07:00:55;;;;;;;;;;;;;;;;;;4995152;28;19920;-75
2022/07/09 07:03:20;;;;;;;;;;;;;;;;;;5011140;28;20301;-76
2022/07/09 07:05:45;;;;;;;;;;;;;;;;;;5012456;28;19941;-76
2022/07/09 07:08:11;;;;;;;;;;;;;;;;;;5010903;28;20269;-77
2022/07/09 07:10:36;;;;;;;;;;;;;;;;;;5012312;28;20403;-76
2022/07/09 07:13:02;;;;;;;;;;;;;;;;;;5012278;28;19916;-75
2022/07/09 07:15:27;;;;;;;;;;;;;;;;;;5012319;28;19913;-75
2022/07/09 07:17:53;;;;;;;;;;;;;;;;;;5011047;28;19921;-75
2022/07/09 07:20:22;;;;;;;;;;;;;;;;;;5010938;28;19910;-75
2022/07/09 07:22:48;;;;;;;;;;;;;;;;;;4994541;28;19953;-77
2022/07/09 07:25:13;;;;;;;;;;;;;;;;;;4994606;28;19952;-77
2022/07/09 07:27:39;;;;;;;;;;;;;;;;;;5011783;28;19935;-76
2022/07/09 07:30:04;;;;;;;;;;;;;;;;;;5010629;28;20368;-76
2022/07/09 07:32:30;;;;;;;;;;;;;;;;;;5010485;28;19917;-76
2022/07/09 07:34:55;;;;;;;;;;;;;;;;;;5011126;28;19913;-75
2022/07/09 07:37:21;;;;;;;;;;;;;;;;;;5014030;28;20237;-75
2022/07/09 07:39:47;;;;;;;;;;;;;;;;;;4998371;28;19917;-76
2022/07/09 07:42:13;;;;;;;;;;;;;;;;;;5014615;28;19992;-76
2022/07/09 07:44:38;;;;;;;;;;;;;;;;;;5014195;28;20338;-76
2022/07/09 07:47:04;;;;;;;;;;;;;;;;;;5015676;28;19914;-76
2022/07/09 07:49:29;;;;;;;;;;;;;;;;;;5031111;28;20110;-77
2022/07/09 07:51:55;;;;;;;;;;;;;;;;;;5016270;28;19914;-76
2022/07/09 07:54:20;;;;;;;;;;;;;;;;;;5014746;28;20299;-76
2022/07/09 07:56:45;;;;;;;;;;;;;;;;;;5014127;28;20369;-77
2022/07/09 07:59:11;;;;;;;;;;;;;;;;;;5014880;28;19988;-75
2022/07/09 08:01:37;;;;;;;;;;;;;;;;;;5014115;28;20007;-76
2022/07/09 08:04:02;;;;;;;;;;;;;;;;;;5014949;28;20384;-75
2022/07/09 08:06:28;;;;;;;;;;;;;;;;;;5014027;28;20108;-76
2022/07/09 08:08:53;;;;;;;;;;;;;;;;;;5015090;28;19956;-77
2022/07/09 08:11:19;;;;;;;;;;;;;;;;;;5014709;28;19967;-75
2022/07/09 08:13:45;;;;;;;;;;;;;;;;;;5014621;28;20307;-75
2022/07/09 08:16:10;;;;;;;;;;;;;;;;;;4997386;28;20330;-75
2022/07/09 08:18:36;;;;;;;;;;;;;;;;;;5013754;28;19933;-76
2022/07/09 08:21:01;;;;;;;;;;;;;;;;;;5013348;28;19996;-75
2022/07/09 08:23:27;;;;;;;;;;;;;;;;;;5013475;28;19914;-76
2022/07/09 08:25:52;;;;;;;;;;;;;;;;;;5013664;28;19921;-75
2022/07/09 08:28:18;;;;;;;;;;;;;;;;;;5013651;28;19914;-76
2022/07/09 08:30:44;;;;;;;;;;;;;;;;;;5006205;23;19985;-86
2022/07/09 08:33:09;;;;;;;;;;;;;;;;;;4950939;28;19981;-86
2022/07/09 08:35:35;;;;;;;;;;;;;;;;;;4968432;28;19920;-86
2022/07/09 08:38:01;;;;;;;;;;;;;;;;;;4969351;28;19918;-85
2022/07/09 08:40:26;;;;;;;;;;;;;;;;;;4972179;28;19914;-88
2022/07/09 08:42:52;;;;;;;;;;;;;;;;;;4967415;28;20392;-85
2022/07/09 08:45:18;;;;;;;;;;;;;;;;;;5002330;28;19924;-87
2022/07/09 08:47:44;;;;;;;;;;;;;;;;;;4966573;28;20222;-85
2022/07/09 08:50:10;;;;;;;;;;;;;;;;;;4969626;28;19914;-88
2022/07/09 08:52:36;;;;;;;;;;;;;;;;;;4999398;28;20443;-85
2022/07/09 08:55:03;;;;;;;;;;;;;;;;;;4985196;28;19955;-85
2022/07/09 08:57:32;;;;;;;;;;;;;;;;;;4967220;28;19924;-85
2022/07/09 08:59:58;;;;;;;;;;;;;;;;;;4968121;28;19914;-85
2022/07/09 09:02:23;;;;;;;;;;;;;;;;;;5000254;28;19938;-85
2022/07/09 09:04:49;;;;;;;;;;;;;;;;;;4983460;28;20361;-85
2022/07/09 09:07:15;;;;;;;;;;;;;;;;;;4998802;28;19928;-86
2022/07/09 09:09:41;;;;;;;;;;;;;;;;;;4984030;28;20304;-86
2022/07/09 09:12:06;;;;;;;;;;;;;;;;;;4997986;28;19913;-86
2022/07/09 09:14:32;;;;;;;;;;;;;;;;;;4999189;28;19921;-86
2022/07/09 09:16:58;;;;;;;;;;;;;;;;;;4967965;28;20019;-86
2022/07/09 09:19:24;;;;;;;;;;;;;;;;;;4983835;28;19964;-84
2022/07/09 09:21:49;;;;;;;;;;;;;;;;;;4974373;28;19956;-86
2022/07/09 09:24:25;;;;;;;;;;;;;;;;;;4986920;28;19914;-86
2022/07/09 09:26:51;;;;;;;;;;;;;;;;;;4982804;28;20160;-86
2022/07/09 09:29:16;;;;;;;;;;;;;;;;;;4982472;28;19910;-86
2022/07/09 09:31:42;;;;;;;;;;;;;;;;;;4997716;28;19918;-85
2022/07/09 09:34:07;;;;;;;;;;;;;;;;;;4997781;28;19929;-86
2022/07/09 09:36:33;;;;;;;;;;;;;;;;;;4981008;28;20004;-86
2022/07/09 09:38:59;;;;;;;;;;;;;;;;;;4998342;28;19936;-86
2022/07/09 09:41:24;;;;;;;;;;;;;;;;;;4997548;28;19921;-86
2022/07/09 09:43:50;;;;;;;;;;;;;;;;;;4997054;28;20369;-86
2022/07/09 09:46:19;;;;;;;;;;;;;;;;;;4980927;28;19924;-83
2022/07/09 09:48:44;;;;;;;;;;;;;;;;;;5009353;28;19949;-84
2022/07/09 09:51:10;;;;;;;;;;;;;;;;;;4993782;28;19914;-86
2022/07/09 09:53:35;;;;;;;;;;;;;;;;;;4979881;28;19913;-84
2022/07/09 09:56:01;;;;;;;;;;;;;;;;;;4998240;28;19913;-86
2022/07/09 09:58:26;;;;;;;;;;;;;;;;;;4981716;28;20356;-87
2022/07/09 10:00:52;;;;;;;;;;;;;;;;;;4990522;28;20266;-87
2022/07/09 10:03:17;;;;;;;;;;;;;;;;;;4987981;28;19989;-87
2022/07/09 10:05:47;;;;;;;;;;;;;;;;;;4970174;28;19914;-87
2022/07/09 10:08:13;;;;;;;;;;;;;;;;;;4984698;28;19914;-86
2022/07/09 10:10:38;;;;;;;;;;;;;;;;;;4970257;28;19920;-87
2022/07/09 10:13:04;;;;;;;;;;;;;;;;;;4985864;28;19914;-88
2022/07/09 10:15:29;;;;;;;;;;;;;;;;;;4968897;28;19914;-86
2022/07/09 10:17:58;;;;;;;;;;;;;;;;;;4969313;28;19918;-87
2022/07/09 10:20:23;;;;;;;;;;;;;;;;;;4971602;28;19909;-88
2022/07/09 10:22:49;;;;;;;;;;;;;;;;;;4987000;28;20004;-87
2022/07/09 10:25:15;;;;;;;;;;;;;;;;;;4988561;28;19910;-85
2022/07/09 10:27:40;;;;;;;;;;;;;;;;;;4989002;28;20377;-86
2022/07/09 10:30:06;;;;;;;;;;;;;;;;;;5012735;28;19975;-85
2022/07/09 10:32:31;;;;;;;;;;;;;;;;;;5007084;28;19918;-86
2022/07/09 10:34:57;;;;;;;;;;;;;;;;;;4992184;28;20245;-87
2022/07/09 10:37:22;;;;;;;;;;;;;;;;;;4993467;28;19999;-87
2022/07/09 10:39:48;;;;;;;;;;;;;;;;;;4991952;28;19913;-86
2022/07/09 10:42:16;;;;;;;;;;;;;;;;;;4992712;28;19922;-85
2022/07/09 10:44:42;;;;;;;;;;;;;;;;;;4978585;28;19920;-87
2022/07/09 10:47:08;;;;;;;;;;;;;;;;;;4977709;28;19925;-87
2022/07/09 10:49:34;;;;;;;;;;;;;;;;;;5003952;28;19914;-87
2022/07/09 10:51:59;;;;;;;;;;;;;;;;;;4985068;28;19910;-88
2022/07/09 10:54:24;;;;;;;;;;;;;;;;;;4987726;28;19917;-85
2022/07/09 10:56:50;;;;;;;;;;;;;;;;;;4986435;28;19913;-87
2022/07/09 10:59:16;;;;;;;;;;;;;;;;;;4982318;28;20296;-86
2022/07/09 11:01:42;;;;;;;;;;;;;;;;;;4965797;28;19937;-88
2022/07/09 11:04:08;;;;;;;;;;;;;;;;;;4965341;28;19917;-87
2022/07/09 11:06:33;;;;;;;;;;;;;;;;;;4981504;28;19913;-90
2022/07/09 11:08:59;;;;;;;;;;;;;;;;;;4998461;28;19921;-87
2022/07/09 11:11:25;;;;;;;;;;;;;;;;;;4998286;28;19937;-87
2022/07/09 11:13:50;;;;;;;;;;;;;;;;;;4966632;28;19973;-88
2022/07/09 11:16:16;;;;;;;;;;;;;;;;;;4982936;28;19914;-85
2022/07/09 11:18:41;;;;;;;;;;;;;;;;;;4999763;28;19953;-87
2022/07/09 11:21:07;;;;;;;;;;;;;;;;;;4966390;28;19919;-87
2022/07/09 11:23:33;;;;;;;;;;;;;;;;;;4965575;28;19920;-87
2022/07/09 11:25:59;;;;;;;;;;;;;;;;;;4965809;28;19937;-87
2022/07/09 11:28:26;;;;;;;;;;;;;;;;;;4966344;28;19917;-88
2022/07/09 11:30:51;;;;;;;;;;;;;;;;;;4982180;28;19921;-89
2022/07/09 11:33:17;;;;;;;;;;;;;;;;;;4968181;28;19914;-89
2022/07/09 11:35:45;;;;;;;;;;;;;;;;;;4998697;28;19914;-88
2022/07/09 11:38:11;;;;;;;;;;;;;;;;;;4967119;28;19917;-88
2022/07/09 11:40:37;;;;;;;;;;;;;;;;;;4966002;28;19963;-88
2022/07/09 11:43:03;;;;;;;;;;;;;;;;;;4966932;28;19941;-88
2022/07/09 11:45:28;;;;;;;;;;;;;;;;;;4965360;28;19918;-88
2022/07/09 11:47:54;;;;;;;;;;;;;;;;;;4965526;28;19970;-88
2022/07/09 11:50:20;;;;;;;;;;;;;;;;;;4982709;28;19914;-88
2022/07/09 11:52:49;;;;;;;;;;;;;;;;;;4981426;28;19913;-88
2022/07/09 11:55:15;;;;;;;;;;;;;;;;;;4964854;28;19936;-87
2022/07/09 11:57:41;;;;;;;;;;;;;;;;;;4967644;28;19914;-89
2022/07/09 12:00:09;;;;;;;;;;;;;;;;;;4967884;28;19925;-88
2022/07/09 12:02:39;;;;;;;;;;;;;;;;;;4966555;28;20233;-88
2022/07/09 12:05:05;;;;;;;;;;;;;;;;;;4966125;28;19914;-88
2022/07/09 12:07:30;;;;;;;;;;;;;;;;;;4967459;28;19910;-87
2022/07/09 12:09:56;;;;;;;;;;;;;;;;;;4967623;28;19921;-86
2022/07/09 12:12:22;;;;;;;;;;;;;;;;;;4966750;28;19964;-88
2022/07/09 12:14:48;;;;;;;;;;;;;;;;;;4980817;28;19957;-88
2022/07/09 12:17:14;;;;;;;;;;;;;;;;;;4965046;28;20008;-87
2022/07/09 12:19:39;;;;;;;;;;;;;;;;;;4997728;28;20017;-88
2022/07/09 12:22:05;;;;;;;;;;;;;;;;;;4980037;28;19914;-88
2022/07/09 12:24:31;;;;;;;;;;;;;;;;;;4967442;28;19910;-87
2022/07/09 12:26:57;;;;;;;;;;;;;;;;;;4967970;28;19972;-86
2022/07/09 12:29:22;;;;;;;;;;;;;;;;;;4983087;28;19913;-85
2022/07/09 12:31:48;;;;;;;;;;;;;;;;;;4963423;28;19922;-85
2022/07/09 12:34:14;;;;;;;;;;;;;;;;;;4963146;28;19917;-85
2022/07/09 12:36:42;;;;;;;;;;;;;;;;;;4962675;28;19921;-85
2022/07/09 12:39:08;;;;;;;;;;;;;;;;;;4962836;28;19922;-86
2022/07/09 12:41:33;;;;;;;;;;;;;;;;;;4978204;28;19914;-85
2022/07/09 12:43:59;;;;;;;;;;;;;;;;;;4978735;28;20284;-85
2022/07/09 12:46:25;;;;;;;;;;;;;;;;;;4978045;28;20385;-85
2022/07/09 12:48:50;;;;;;;;;;;;;;;;;;4962295;28;19914;-86
2022/07/09 12:51:16;;;;;;;;;;;;;;;;;;4962456;28;19918;-86
2022/07/09 12:53:41;;;;;;;;;;;;;;;;;;4978375;28;19964;-86
2022/07/09 12:56:07;;;;;;;;;;;;;;;;;;4962481;28;19952;-86
2022/07/09 12:58:33;;;;;;;;;;;;;;;;;;4962845;28;19924;-87
2022/07/09 13:00:59;;;;;;;;;;;;;;;;;;4962732;28;19918;-86
2022/07/09 13:03:27;;;;;;;;;;;;;;;;;;4962875;28;19918;-86
2022/07/09 13:05:53;;;;;;;;;;;;;;;;;;4978216;28;19910;-86
2022/07/09 13:08:19;;;;;;;;;;;;;;;;;;4978474;28;19918;-86
2022/07/09 13:10:48;;;;;;;;;;;;;;;;;;4977930;28;19921;-85
2022/07/09 13:13:17;;;;;;;;;;;;;;;;;;4978233;28;19913;-84
2022/07/09 13:15:43;;;;;;;;;;;;;;;;;;4961852;28;20460;-86
2022/07/09 13:18:15;;;;;;;;;;;;;;;;;;4962468;28;19925;-86
2022/07/09 13:20:42;;;;;;;;;;;;;;;;;;4962164;28;19914;-85
2022/07/09 13:23:08;;;;;;;;;;;;;;;;;;4961632;28;19969;-85
2022/07/09 13:25:39;;;;;;;;;;;;;;;;;;4962921;28;19918;-85
2022/07/09 13:28:06;;;;;;;;;;;;;;;;;;4961987;28;20012;-85
2022/07/09 13:30:35;;;;;;;;;;;;;;;;;;4977374;28;19918;-88
2022/07/09 13:33:02;;;;;;;;;;;;;;;;;;4978044;28;19918;-88
2022/07/09 13:35:27;;;;;;;;;;;;;;;;;;4964317;28;19928;-87
2022/07/09 13:37:55;;;;;;;;;;;;;;;;;;4965100;28;19918;-88
2022/07/09 13:40:21;;;;;;;;;;;;;;;;;;4963405;28;19914;-88
2022/07/09 13:42:50;;;;;;;;;;;;;;;;;;4963180;28;19913;-88
2022/07/09 13:45:16;;;;;;;;;;;;;;;;;;4963028;28;20420;-87
2022/07/09 13:47:41;;;;;;;;;;;;;;;;;;4978468;28;19914;-86
2022/07/09 13:50:12;;;;;;;;;;;;;;;;;;4979725;28;19956;-87
2022/07/09 13:52:41;;;;;;;;;;;;;;;;;;4980587;28;19914;-87
2022/07/09 13:55:07;;;;;;;;;;;;;;;;;;5003808;28;20312;-86
2022/07/09 13:57:32;;;;;;;;;;;;;;;;;;4999411;28;19910;-85
2022/07/09 13:59:58;;;;;;;;;;;;;;;;;;4966258;28;19917;-87
2022/07/09 14:02:27;;;;;;;;;;;;;;;;;;4965708;28;19914;-85
2022/07/09 14:04:56;;;;;;;;;;;;;;;;;;4981025;28;19964;-84
2022/07/09 14:07:23;;;;;;;;;;;;;;;;;;4964616;28;19914;-84
2022/07/09 14:09:48;;;;;;;;;;;;;;;;;;4964297;28;19917;-85
2022/07/09 14:12:16;;;;;;;;;;;;;;;;;;4995031;28;19953;-85
2022/07/09 14:14:41;;;;;;;;;;;;;;;;;;4994233;28;20013;-85
2022/07/09 14:17:07;;;;;;;;;;;;;;;;;;4962080;28;20005;-85
2022/07/09 14:19:33;;;;;;;;;;;;;;;;;;4976819;28;20015;-84
2022/07/09 14:21:58;;;;;;;;;;;;;;;;;;4992911;28;20020;-84
2022/07/09 14:24:27;;;;;;;;;;;;;;;;;;4960708;28;20002;-84
2022/07/09 14:26:52;;;;;;;;;;;;;;;;;;4960883;28;19938;-84
2022/07/09 14:29:18;;;;;;;;;;;;;;;;;;4976992;28;20016;-85
2022/07/09 14:31:43;;;;;;;;;;;;;;;;;;4976449;28;19918;-80
2022/07/09 14:34:09;;;;;;;;;;;;;;;;;;5040653;23;19932;-91
2022/07/09 14:36:34;;;;;;;;;;;;;;;;;;5019057;28;19914;-93
2022/07/09 14:39:01;;;;;;;;;;;;;;;;;;5019508;28;19941;-91
2022/07/09 14:41:27;;;;;;;;;;;;;;;;;;5000849;28;19958;-90
2022/07/09 14:43:52;;;;;;;;;;;;;;;;;;5006867;28;20009;-91
2022/07/09 14:46:18;;;;;;;;;;;;;;;;;;5007736;28;19914;-91
2022/07/09 14:48:43;;;;;;;;;;;;;;;;;;4988655;28;20018;-89
2022/07/09 14:51:09;;;;;;;;;;;;;;;;;;5009365;28;19921;-88
2022/07/09 14:53:35;;;;;;;;;;;;;;;;;;5007367;28;19921;-88
2022/07/09 14:56:00;;;;;;;;;;;;;;;;;;5008447;28;19973;-88
2022/07/09 14:58:26;;;;;;;;;;;;;;;;;;5005525;28;20268;-87
2022/07/09 15:00:51;;;;;;;;;;;;;;;;;;5008024;28;20020;-86
2022/07/09 15:03:20;;;;;;;;;;;;;;;;;;5008175;28;19977;-88
2022/07/09 15:05:45;;;;;;;;;;;;;;;;;;5003482;28;19914;-90
2022/07/09 15:08:11;;;;;;;;;;;;;;;;;;4997861;28;19928;-88
2022/07/09 15:10:37;;;;;;;;;;;;;;;;;;5009712;28;19945;-85
2022/07/09 15:13:02;;;;;;;;;;;;;;;;;;4976071;28;19914;-85
2022/07/09 15:15:31;;;;;;;;;;;;;;;;;;4978439;28;19937;-87
2022/07/09 15:17:56;;;;;;;;;;;;;;;;;;4977136;28;19928;-88
2022/07/09 15:20:22;;;;;;;;;;;;;;;;;;4994242;28;19914;-86
2022/07/09 15:22:48;;;;;;;;;;;;;;;;;;5009885;28;19925;-88
2022/07/09 15:25:14;;;;;;;;;;;;;;;;;;4981104;28;19918;-93
2022/07/09 15:27:40;;;;;;;;;;;;;;;;;;5013873;28;19932;-89
2022/07/09 15:30:08;;;;;;;;;;;;;;;;;;5016825;28;19964;-91
2022/07/09 15:32:34;;;;;;;;;;;;;;;;;;4982620;28;19918;-88
2022/07/09 15:34:59;;;;;;;;;;;;;;;;;;5014188;28;19962;-88
2022/07/09 15:37:24;;;;;;;;;;;;;;;;;;4979290;28;20000;-90
2022/07/09 15:39:50;;;;;;;;;;;;;;;;;;4994709;28;19925;-91
2022/07/09 15:42:15;;;;;;;;;;;;;;;;;;4993696;28;19914;-92
2022/07/09 15:44:41;;;;;;;;;;;;;;;;;;4990067;28;19914;-93
2022/07/09 15:47:06;;;;;;;;;;;;;;;;;;4976984;28;19969;-92
2022/07/09 15:49:36;;;;;;;;;;;;;;;;;;4978160;28;19913;-93
2022/07/09 15:52:01;;;;;;;;;;;;;;;;;;5007904;28;19920;-92
2022/07/09 15:54:27;;;;;;;;;;;;;;;;;;4989753;28;19949;-89
2022/07/09 15:56:52;;;;;;;;;;;;;;;;;;4970372;28;20345;-91
2022/07/09 15:59:18;;;;;;;;;;;;;;;;;;4995584;28;19917;-91
2022/07/09 16:01:43;;;;;;;;;;;;;;;;;;4975898;28;19910;-90
2022/07/09 16:04:12;;;;;;;;;;;;;;;;;;4970308;28;20036;-93
2022/07/09 16:06:37;;;;;;;;;;;;;;;;;;4998321;28;19925;-92
2022/07/09 16:09:03;;;;;;;;;;;;;;;;;;4996132;28;19913;-91
2022/07/09 16:14:15;;;;;;;;;;;;;;;;;;4981885;28;19937;-88
2022/07/09 16:16:43;;;;;;;;;;;;;;;;;;4966245;28;19921;-88
2022/07/09 16:19:09;;;;;;;;;;;;;;;;;;4981478;28;20292;-90
2022/07/09 16:21:34;;;;;;;;;;;;;;;;;;4964940;28;19967;-91
2022/07/09 16:23:59;;;;;;;;;;;;;;;;;;4964154;28;19921;-89
2022/07/09 16:26:25;;;;;;;;;;;;;;;;;;4964638;28;20265;-90
2022/07/09 16:28:51;;;;;;;;;;;;;;;;;;4963682;28;19921;-90
2022/07/09 16:31:16;;;;;;;;;;;;;;;;;;4967984;28;19914;-90
2022/07/09 16:33:44;;;;;;;;;;;;;;;;;;4966483;28;19918;-89
2022/07/09 16:36:10;;;;;;;;;;;;;;;;;;4966609;28;19996;-89
2022/07/09 16:38:35;;;;;;;;;;;;;;;;;;4999475;28;19953;-88
2022/07/09 16:41:01;;;;;;;;;;;;;;;;;;4999713;28;20380;-87
2022/07/09 16:43:26;;;;;;;;;;;;;;;;;;4996913;28;20389;-84